sensor_id;sensor_type;location;lat;lon;timestamp;P1;durP1;ratioP1;P2;durP2;ratioP2
3054;SDS011;1537;52.018;8.542;2023-10-31T00:03:04;4.10;;;1.97;;
3054;SDS011;1537;52.018;8.542;2023-10-31T00:06:29;6.60;;;2.00;;
3054;SDS011;1537;52.018;8.542;2023-10-31T00:09:53;4.33;;;2.27;;
3054;SDS011;1537;52.018;8.542;2023-10-31T00:13:17;5.83;;;2.30;;
3054;SDS011;1537;52.018;8.542;2023-10-31T00:16:53;4.83;;;2.70;;
3054;SDS011;1537;52.018;8.542;2023-10-31T00:20:17;4.60;;;2.40;;
3054;SDS011;1537;52.018;8.542;2023-10-31T00:23:44;4.77;;;2.20;;
3054;SDS011;1537;52.018;8.542;2023-10-31T00:27:08;5.43;;;2.40;;
3054;SDS011;1537;52.018;8.542;2023-10-31T00:30:32;5.93;;;2.77;;
3054;SDS011;1537;52.018;8.542;2023-10-31T00:33:57;4.67;;;2.23;;
3054;SDS011;1537;52.018;8.542;2023-10-31T00:37:21;5.27;;;2.80;;
3054;SDS011;1537;52.018;8.542;2023-10-31T00:40:49;5.33;;;2.63;;
3054;SDS011;1537;52.018;8.542;2023-10-31T00:44:13;5.30;;;2.53;;
3054;SDS011;1537;52.018;8.542;2023-10-31T00:47:37;4.80;;;2.67;;
3054;SDS011;1537;52.018;8.542;2023-10-31T00:51:01;5.43;;;2.80;;
3054;SDS011;1537;52.018;8.542;2023-10-31T00:54:26;4.70;;;2.47;;
3054;SDS011;1537;52.018;8.542;2023-10-31T00:57:51;6.47;;;3.10;;
3054;SDS011;1537;52.018;8.542;2023-10-31T01:01:15;6.23;;;3.57;;
3054;SDS011;1537;52.018;8.542;2023-10-31T01:04:39;6.00;;;3.30;;
3054;SDS011;1537;52.018;8.542;2023-10-31T01:08:03;6.43;;;3.37;;
3054;SDS011;1537;52.018;8.542;2023-10-31T01:11:27;4.90;;;3.20;;
3054;SDS011;1537;52.018;8.542;2023-10-31T01:14:52;6.73;;;3.00;;
3054;SDS011;1537;52.018;8.542;2023-10-31T01:18:20;8.00;;;3.60;;
3054;SDS011;1537;52.018;8.542;2023-10-31T01:21:46;5.70;;;3.33;;
3054;SDS011;1537;52.018;8.542;2023-10-31T01:25:10;6.73;;;3.50;;
3054;SDS011;1537;52.018;8.542;2023-10-31T01:28:34;7.97;;;3.93;;
3054;SDS011;1537;52.018;8.542;2023-10-31T01:32:03;6.37;;;3.50;;
3054;SDS011;1537;52.018;8.542;2023-10-31T01:35:38;6.23;;;3.53;;
3054;SDS011;1537;52.018;8.542;2023-10-31T01:39:02;9.10;;;5.50;;
3054;SDS011;1537;52.018;8.542;2023-10-31T01:42:26;7.50;;;3.80;;
3054;SDS011;1537;52.018;8.542;2023-10-31T01:45:50;6.57;;;3.93;;
3054;SDS011;1537;52.018;8.542;2023-10-31T01:49:21;7.77;;;4.20;;
3054;SDS011;1537;52.018;8.542;2023-10-31T01:52:45;6.87;;;4.10;;
3054;SDS011;1537;52.018;8.542;2023-10-31T01:56:10;7.20;;;5.50;;
3054;SDS011;1537;52.018;8.542;2023-10-31T01:59:36;8.13;;;5.73;;
3054;SDS011;1537;52.018;8.542;2023-10-31T02:03:00;8.40;;;5.83;;
3054;SDS011;1537;52.018;8.542;2023-10-31T02:06:26;8.37;;;7.40;;
3054;SDS011;1537;52.018;8.542;2023-10-31T02:09:52;8.53;;;7.00;;
3054;SDS011;1537;52.018;8.542;2023-10-31T02:13:24;8.30;;;6.90;;
3054;SDS011;1537;52.018;8.542;2023-10-31T02:16:48;9.17;;;7.80;;
3054;SDS011;1537;52.018;8.542;2023-10-31T02:20:12;9.27;;;7.90;;
3054;SDS011;1537;52.018;8.542;2023-10-31T02:23:37;8.67;;;7.60;;
3054;SDS011;1537;52.018;8.542;2023-10-31T02:27:02;7.73;;;6.67;;
3054;SDS011;1537;52.018;8.542;2023-10-31T02:30:26;8.60;;;6.80;;
3054;SDS011;1537;52.018;8.542;2023-10-31T02:33:50;6.80;;;5.47;;
3054;SDS011;1537;52.018;8.542;2023-10-31T02:37:14;6.00;;;4.40;;
3054;SDS011;1537;52.018;8.542;2023-10-31T02:40:39;6.43;;;4.77;;
3054;SDS011;1537;52.018;8.542;2023-10-31T02:44:04;4.90;;;2.97;;
3054;SDS011;1537;52.018;8.542;2023-10-31T02:47:28;6.10;;;3.17;;
3054;SDS011;1537;52.018;8.542;2023-10-31T02:50:54;5.13;;;2.70;;
3054;SDS011;1537;52.018;8.542;2023-10-31T02:54:20;4.50;;;2.50;;
3054;SDS011;1537;52.018;8.542;2023-10-31T02:57:46;4.57;;;2.23;;
3054;SDS011;1537;52.018;8.542;2023-10-31T03:01:10;4.10;;;2.03;;
3054;SDS011;1537;52.018;8.542;2023-10-31T03:04:34;3.90;;;2.23;;
3054;SDS011;1537;52.018;8.542;2023-10-31T03:07:58;4.33;;;2.50;;
3054;SDS011;1537;52.018;8.542;2023-10-31T03:11:22;4.20;;;1.90;;
3054;SDS011;1537;52.018;8.542;2023-10-31T03:14:49;4.17;;;1.70;;
3054;SDS011;1537;52.018;8.542;2023-10-31T03:18:12;3.93;;;1.77;;
3054;SDS011;1537;52.018;8.542;2023-10-31T03:21:37;5.67;;;2.67;;
3054;SDS011;1537;52.018;8.542;2023-10-31T03:25:02;4.37;;;1.57;;
3054;SDS011;1537;52.018;8.542;2023-10-31T03:28:27;5.17;;;1.60;;
3054;SDS011;1537;52.018;8.542;2023-10-31T03:31:53;3.50;;;1.10;;
3054;SDS011;1537;52.018;8.542;2023-10-31T03:35:16;3.67;;;1.27;;
3054;SDS011;1537;52.018;8.542;2023-10-31T03:38:42;3.67;;;1.10;;
3054;SDS011;1537;52.018;8.542;2023-10-31T03:42:07;3.50;;;1.40;;
3054;SDS011;1537;52.018;8.542;2023-10-31T03:45:31;5.07;;;1.53;;
3054;SDS011;1537;52.018;8.542;2023-10-31T03:48:57;3.90;;;1.27;;
3054;SDS011;1537;52.018;8.542;2023-10-31T03:52:20;3.73;;;1.00;;
3054;SDS011;1537;52.018;8.542;2023-10-31T03:55:44;3.30;;;1.10;;
3054;SDS011;1537;52.018;8.542;2023-10-31T03:59:11;3.70;;;1.33;;
3054;SDS011;1537;52.018;8.542;2023-10-31T04:02:36;3.70;;;1.43;;
3054;SDS011;1537;52.018;8.542;2023-10-31T04:06:06;3.90;;;1.30;;
3054;SDS011;1537;52.018;8.542;2023-10-31T04:09:35;3.73;;;1.50;;
3054;SDS011;1537;52.018;8.542;2023-10-31T04:12:59;3.70;;;1.43;;
3054;SDS011;1537;52.018;8.542;2023-10-31T04:16:23;4.57;;;1.70;;
3054;SDS011;1537;52.018;8.542;2023-10-31T04:19:49;4.30;;;1.70;;
3054;SDS011;1537;52.018;8.542;2023-10-31T04:23:15;4.40;;;2.17;;
3054;SDS011;1537;52.018;8.542;2023-10-31T04:26:40;4.13;;;1.93;;
3054;SDS011;1537;52.018;8.542;2023-10-31T04:30:04;8.00;;;2.70;;
3054;SDS011;1537;52.018;8.542;2023-10-31T04:33:28;4.63;;;2.40;;
3054;SDS011;1537;52.018;8.542;2023-10-31T04:36:52;5.47;;;2.60;;
3054;SDS011;1537;52.018;8.542;2023-10-31T04:40:17;5.40;;;3.20;;
3054;SDS011;1537;52.018;8.542;2023-10-31T04:43:41;4.90;;;2.90;;
3054;SDS011;1537;52.018;8.542;2023-10-31T04:47:05;5.90;;;2.93;;
3054;SDS011;1537;52.018;8.542;2023-10-31T04:50:30;5.93;;;2.70;;
3054;SDS011;1537;52.018;8.542;2023-10-31T04:53:54;6.43;;;3.17;;
3054;SDS011;1537;52.018;8.542;2023-10-31T04:57:20;7.13;;;3.43;;
3054;SDS011;1537;52.018;8.542;2023-10-31T05:00:44;8.20;;;4.50;;
3054;SDS011;1537;52.018;8.542;2023-10-31T05:04:10;6.60;;;4.37;;
3054;SDS011;1537;52.018;8.542;2023-10-31T05:07:35;9.77;;;5.10;;
3054;SDS011;1537;52.018;8.542;2023-10-31T05:10:59;8.73;;;5.40;;
3054;SDS011;1537;52.018;8.542;2023-10-31T05:14:25;9.40;;;5.60;;
3054;SDS011;1537;52.018;8.542;2023-10-31T05:17:49;10.30;;;5.80;;
3054;SDS011;1537;52.018;8.542;2023-10-31T05:21:18;10.70;;;6.00;;
3054;SDS011;1537;52.018;8.542;2023-10-31T05:24:43;14.50;;;7.27;;
3054;SDS011;1537;52.018;8.542;2023-10-31T05:28:19;8.67;;;6.80;;
3054;SDS011;1537;52.018;8.542;2023-10-31T05:31:45;9.93;;;7.90;;
3054;SDS011;1537;52.018;8.542;2023-10-31T05:35:09;11.60;;;7.37;;
3054;SDS011;1537;52.018;8.542;2023-10-31T05:38:33;12.97;;;6.60;;
3054;SDS011;1537;52.018;8.542;2023-10-31T05:41:57;10.57;;;5.97;;
3054;SDS011;1537;52.018;8.542;2023-10-31T05:45:21;11.17;;;6.80;;
3054;SDS011;1537;52.018;8.542;2023-10-31T05:48:46;13.13;;;7.57;;
3054;SDS011;1537;52.018;8.542;2023-10-31T05:52:10;9.80;;;6.97;;
3054;SDS011;1537;52.018;8.542;2023-10-31T05:55:34;9.40;;;7.30;;
3054;SDS011;1537;52.018;8.542;2023-10-31T05:59:01;13.27;;;8.40;;
3054;SDS011;1537;52.018;8.542;2023-10-31T06:02:25;12.87;;;8.47;;
3054;SDS011;1537;52.018;8.542;2023-10-31T06:05:55;16.20;;;9.00;;
3054;SDS011;1537;52.018;8.542;2023-10-31T06:09:18;13.17;;;9.77;;
3054;SDS011;1537;52.018;8.542;2023-10-31T06:12:42;12.60;;;9.40;;
3054;SDS011;1537;52.018;8.542;2023-10-31T06:16:06;15.23;;;11.53;;
3054;SDS011;1537;52.018;8.542;2023-10-31T06:19:33;15.77;;;10.40;;
3054;SDS011;1537;52.018;8.542;2023-10-31T06:22:59;15.30;;;10.60;;
3054;SDS011;1537;52.018;8.542;2023-10-31T06:26:23;15.70;;;10.40;;
3054;SDS011;1537;52.018;8.542;2023-10-31T06:29:52;15.43;;;12.40;;
3054;SDS011;1537;52.018;8.542;2023-10-31T06:33:37;14.23;;;11.60;;
3054;SDS011;1537;52.018;8.542;2023-10-31T06:37:01;15.73;;;11.80;;
3054;SDS011;1537;52.018;8.542;2023-10-31T06:40:27;17.43;;;12.10;;
3054;SDS011;1537;52.018;8.542;2023-10-31T06:43:53;17.70;;;12.23;;
3054;SDS011;1537;52.018;8.542;2023-10-31T06:47:17;15.20;;;10.73;;
3054;SDS011;1537;52.018;8.542;2023-10-31T06:50:41;18.63;;;13.17;;
3054;SDS011;1537;52.018;8.542;2023-10-31T06:54:06;18.80;;;12.17;;
3054;SDS011;1537;52.018;8.542;2023-10-31T06:57:33;19.27;;;12.10;;
3054;SDS011;1537;52.018;8.542;2023-10-31T07:00:57;16.33;;;12.40;;
3054;SDS011;1537;52.018;8.542;2023-10-31T07:04:21;16.23;;;11.63;;
3054;SDS011;1537;52.018;8.542;2023-10-31T07:07:46;13.33;;;10.43;;
3054;SDS011;1537;52.018;8.542;2023-10-31T07:11:09;15.57;;;10.83;;
3054;SDS011;1537;52.018;8.542;2023-10-31T07:14:35;21.63;;;12.17;;
3054;SDS011;1537;52.018;8.542;2023-10-31T07:18:03;12.23;;;9.10;;
3054;SDS011;1537;52.018;8.542;2023-10-31T07:21:30;15.07;;;10.40;;
3054;SDS011;1537;52.018;8.542;2023-10-31T07:24:54;11.70;;;8.53;;
3054;SDS011;1537;52.018;8.542;2023-10-31T07:28:19;11.27;;;7.33;;
3054;SDS011;1537;52.018;8.542;2023-10-31T07:31:53;10.43;;;7.00;;
3054;SDS011;1537;52.018;8.542;2023-10-31T07:35:17;8.53;;;6.20;;
3054;SDS011;1537;52.018;8.542;2023-10-31T07:38:42;8.10;;;4.53;;
3054;SDS011;1537;52.018;8.542;2023-10-31T07:42:06;6.90;;;3.80;;
3054;SDS011;1537;52.018;8.542;2023-10-31T07:45:30;6.10;;;3.63;;
3054;SDS011;1537;52.018;8.542;2023-10-31T07:48:55;6.50;;;3.53;;
3054;SDS011;1537;52.018;8.542;2023-10-31T07:52:19;5.17;;;2.73;;
3054;SDS011;1537;52.018;8.542;2023-10-31T07:55:42;5.93;;;3.73;;
3054;SDS011;1537;52.018;8.542;2023-10-31T07:59:06;5.30;;;2.60;;
3054;SDS011;1537;52.018;8.542;2023-10-31T08:02:30;4.87;;;2.27;;
3054;SDS011;1537;52.018;8.542;2023-10-31T08:05:56;5.10;;;2.77;;
3054;SDS011;1537;52.018;8.542;2023-10-31T08:09:19;5.30;;;2.40;;
3054;SDS011;1537;52.018;8.542;2023-10-31T08:12:43;4.70;;;2.70;;
3054;SDS011;1537;52.018;8.542;2023-10-31T08:16:07;5.07;;;2.83;;
3054;SDS011;1537;52.018;8.542;2023-10-31T08:19:31;4.80;;;2.80;;
3054;SDS011;1537;52.018;8.542;2023-10-31T08:22:56;4.90;;;2.70;;
3054;SDS011;1537;52.018;8.542;2023-10-31T08:26:19;5.97;;;3.80;;
3054;SDS011;1537;52.018;8.542;2023-10-31T08:29:43;4.67;;;3.13;;
3054;SDS011;1537;52.018;8.542;2023-10-31T08:33:07;6.10;;;4.07;;
3054;SDS011;1537;52.018;8.542;2023-10-31T08:36:32;5.40;;;4.10;;
3054;SDS011;1537;52.018;8.542;2023-10-31T08:39:58;5.60;;;5.10;;
3054;SDS011;1537;52.018;8.542;2023-10-31T08:43:22;7.93;;;6.40;;
3054;SDS011;1537;52.018;8.542;2023-10-31T08:46:46;8.17;;;6.10;;
3054;SDS011;1537;52.018;8.542;2023-10-31T08:50:10;6.63;;;6.03;;
3054;SDS011;1537;52.018;8.542;2023-10-31T08:53:34;6.30;;;5.80;;
3054;SDS011;1537;52.018;8.542;2023-10-31T08:56:59;6.57;;;5.97;;
3054;SDS011;1537;52.018;8.542;2023-10-31T09:00:22;7.30;;;6.60;;
3054;SDS011;1537;52.018;8.542;2023-10-31T09:03:46;7.90;;;7.20;;
3054;SDS011;1537;52.018;8.542;2023-10-31T09:07:10;6.90;;;6.20;;
3054;SDS011;1537;52.018;8.542;2023-10-31T09:10:35;6.90;;;6.20;;
3054;SDS011;1537;52.018;8.542;2023-10-31T09:14:01;6.50;;;5.70;;
3054;SDS011;1537;52.018;8.542;2023-10-31T09:17:25;6.10;;;5.50;;
3054;SDS011;1537;52.018;8.542;2023-10-31T09:20:48;8.07;;;5.80;;
3054;SDS011;1537;52.018;8.542;2023-10-31T09:24:12;5.90;;;5.30;;
3054;SDS011;1537;52.018;8.542;2023-10-31T09:27:36;6.70;;;6.00;;
3054;SDS011;1537;52.018;8.542;2023-10-31T09:31:01;6.57;;;5.90;;
3054;SDS011;1537;52.018;8.542;2023-10-31T09:34:25;8.00;;;6.10;;
3054;SDS011;1537;52.018;8.542;2023-10-31T09:37:49;9.07;;;6.70;;
3054;SDS011;1537;52.018;8.542;2023-10-31T09:41:13;6.10;;;5.30;;
3054;SDS011;1537;52.018;8.542;2023-10-31T09:44:37;8.20;;;6.60;;
3054;SDS011;1537;52.018;8.542;2023-10-31T09:48:02;7.83;;;6.20;;
3054;SDS011;1537;52.018;8.542;2023-10-31T09:51:26;8.50;;;7.00;;
3054;SDS011;1537;52.018;8.542;2023-10-31T09:54:51;14.87;;;7.20;;
3054;SDS011;1537;52.018;8.542;2023-10-31T09:58:16;12.47;;;8.07;;
3054;SDS011;1537;52.018;8.542;2023-10-31T10:01:40;9.33;;;7.80;;
3054;SDS011;1537;52.018;8.542;2023-10-31T10:05:05;11.17;;;8.60;;
3054;SDS011;1537;52.018;8.542;2023-10-31T10:08:32;11.80;;;8.07;;
3054;SDS011;1537;52.018;8.542;2023-10-31T10:11:59;14.23;;;9.60;;
3054;SDS011;1537;52.018;8.542;2023-10-31T10:15:24;11.60;;;9.63;;
3054;SDS011;1537;52.018;8.542;2023-10-31T10:18:48;14.37;;;9.20;;
3054;SDS011;1537;52.018;8.542;2023-10-31T10:22:14;11.53;;;8.87;;
3054;SDS011;1537;52.018;8.542;2023-10-31T10:25:42;12.90;;;9.47;;
3054;SDS011;1537;52.018;8.542;2023-10-31T10:29:06;13.50;;;10.43;;
3054;SDS011;1537;52.018;8.542;2023-10-31T10:32:30;14.40;;;10.70;;
3054;SDS011;1537;52.018;8.542;2023-10-31T10:35:54;12.63;;;9.97;;
3054;SDS011;1537;52.018;8.542;2023-10-31T10:39:20;12.07;;;8.87;;
3054;SDS011;1537;52.018;8.542;2023-10-31T10:42:45;15.43;;;10.70;;
3054;SDS011;1537;52.018;8.542;2023-10-31T10:46:10;12.40;;;9.33;;
3054;SDS011;1537;52.018;8.542;2023-10-31T10:49:38;13.30;;;10.13;;
3054;SDS011;1537;52.018;8.542;2023-10-31T10:53:06;12.47;;;10.13;;
3054;SDS011;1537;52.018;8.542;2023-10-31T10:56:38;16.70;;;10.57;;
3054;SDS011;1537;52.018;8.542;2023-10-31T11:00:05;14.70;;;9.00;;
3054;SDS011;1537;52.018;8.542;2023-10-31T11:03:34;12.90;;;9.37;;
3054;SDS011;1537;52.018;8.542;2023-10-31T11:06:59;12.23;;;8.87;;
3054;SDS011;1537;52.018;8.542;2023-10-31T11:10:24;12.03;;;10.13;;
3054;SDS011;1537;52.018;8.542;2023-10-31T11:13:51;12.60;;;9.73;;
3054;SDS011;1537;52.018;8.542;2023-10-31T11:17:18;12.50;;;9.30;;
3054;SDS011;1537;52.018;8.542;2023-10-31T11:20:47;12.23;;;9.10;;
3054;SDS011;1537;52.018;8.542;2023-10-31T11:24:11;12.60;;;9.23;;
3054;SDS011;1537;52.018;8.542;2023-10-31T11:27:35;12.77;;;8.90;;
3054;SDS011;1537;52.018;8.542;2023-10-31T11:31:01;11.40;;;9.63;;
3054;SDS011;1537;52.018;8.542;2023-10-31T11:34:26;13.50;;;8.80;;
3054;SDS011;1537;52.018;8.542;2023-10-31T11:38:00;13.10;;;9.97;;
3054;SDS011;1537;52.018;8.542;2023-10-31T11:41:25;11.10;;;8.83;;
3054;SDS011;1537;52.018;8.542;2023-10-31T11:44:54;10.23;;;8.53;;
3054;SDS011;1537;52.018;8.542;2023-10-31T11:48:19;14.87;;;11.03;;
3054;SDS011;1537;52.018;8.542;2023-10-31T11:52:14;12.90;;;9.80;;
3054;SDS011;1537;52.018;8.542;2023-10-31T11:55:39;11.63;;;9.30;;
3054;SDS011;1537;52.018;8.542;2023-10-31T11:59:04;13.37;;;10.93;;
3054;SDS011;1537;52.018;8.542;2023-10-31T12:02:29;15.47;;;9.53;;
3054;SDS011;1537;52.018;8.542;2023-10-31T12:05:55;12.07;;;9.67;;
3054;SDS011;1537;52.018;8.542;2023-10-31T12:09:19;12.10;;;9.33;;
3054;SDS011;1537;52.018;8.542;2023-10-31T12:12:43;11.93;;;10.07;;
3054;SDS011;1537;52.018;8.542;2023-10-31T12:16:07;13.80;;;10.77;;
3054;SDS011;1537;52.018;8.542;2023-10-31T12:19:33;12.90;;;10.43;;
3054;SDS011;1537;52.018;8.542;2023-10-31T12:23:04;14.00;;;10.83;;
3054;SDS011;1537;52.018;8.542;2023-10-31T12:26:28;12.17;;;10.23;;
3054;SDS011;1537;52.018;8.542;2023-10-31T12:29:59;15.90;;;10.53;;
3054;SDS011;1537;52.018;8.542;2023-10-31T12:33:25;12.37;;;10.90;;
3054;SDS011;1537;52.018;8.542;2023-10-31T12:36:50;13.10;;;10.63;;
3054;SDS011;1537;52.018;8.542;2023-10-31T12:40:17;12.10;;;10.27;;
3054;SDS011;1537;52.018;8.542;2023-10-31T12:43:41;12.80;;;9.30;;
3054;SDS011;1537;52.018;8.542;2023-10-31T12:47:07;10.60;;;8.30;;
3054;SDS011;1537;52.018;8.542;2023-10-31T12:50:31;11.63;;;9.10;;
3054;SDS011;1537;52.018;8.542;2023-10-31T12:53:54;13.27;;;9.70;;
3054;SDS011;1537;52.018;8.542;2023-10-31T12:57:19;12.93;;;8.77;;
3054;SDS011;1537;52.018;8.542;2023-10-31T13:00:43;11.63;;;10.37;;
3054;SDS011;1537;52.018;8.542;2023-10-31T13:04:08;12.33;;;10.40;;
3054;SDS011;1537;52.018;8.542;2023-10-31T13:07:32;11.20;;;9.40;;
3054;SDS011;1537;52.018;8.542;2023-10-31T13:10:56;12.93;;;11.23;;
3054;SDS011;1537;52.018;8.542;2023-10-31T13:14:23;16.80;;;11.13;;
3054;SDS011;1537;52.018;8.542;2023-10-31T13:17:47;11.67;;;9.40;;
3054;SDS011;1537;52.018;8.542;2023-10-31T13:21:11;14.13;;;10.77;;
3054;SDS011;1537;52.018;8.542;2023-10-31T13:24:36;16.83;;;11.83;;
3054;SDS011;1537;52.018;8.542;2023-10-31T13:28:01;11.13;;;9.30;;
3054;SDS011;1537;52.018;8.542;2023-10-31T13:31:30;17.17;;;11.20;;
3054;SDS011;1537;52.018;8.542;2023-10-31T13:34:53;13.63;;;11.73;;
3054;SDS011;1537;52.018;8.542;2023-10-31T13:38:17;13.00;;;10.70;;
3054;SDS011;1537;52.018;8.542;2023-10-31T13:41:41;10.30;;;9.23;;
3054;SDS011;1537;52.018;8.542;2023-10-31T13:45:05;15.67;;;10.00;;
3054;SDS011;1537;52.018;8.542;2023-10-31T13:48:32;14.23;;;11.30;;
3054;SDS011;1537;52.018;8.542;2023-10-31T13:51:56;14.73;;;11.47;;
3054;SDS011;1537;52.018;8.542;2023-10-31T13:55:20;18.33;;;12.27;;
3054;SDS011;1537;52.018;8.542;2023-10-31T13:58:45;23.63;;;12.70;;
3054;SDS011;1537;52.018;8.542;2023-10-31T14:02:11;17.63;;;11.53;;
3054;SDS011;1537;52.018;8.542;2023-10-31T14:05:36;20.37;;;12.47;;
3054;SDS011;1537;52.018;8.542;2023-10-31T14:09:01;15.67;;;11.67;;
3054;SDS011;1537;52.018;8.542;2023-10-31T14:12:27;16.83;;;11.70;;
3054;SDS011;1537;52.018;8.542;2023-10-31T14:15:53;17.40;;;11.00;;
3054;SDS011;1537;52.018;8.542;2023-10-31T14:19:17;14.37;;;11.20;;
3054;SDS011;1537;52.018;8.542;2023-10-31T14:22:42;13.60;;;11.60;;
3054;SDS011;1537;52.018;8.542;2023-10-31T14:26:16;16.40;;;11.10;;
3054;SDS011;1537;52.018;8.542;2023-10-31T14:29:39;18.40;;;11.80;;
3054;SDS011;1537;52.018;8.542;2023-10-31T14:33:03;16.50;;;11.17;;
3054;SDS011;1537;52.018;8.542;2023-10-31T14:36:27;14.40;;;11.87;;
3054;SDS011;1537;52.018;8.542;2023-10-31T14:39:52;17.80;;;13.67;;
3054;SDS011;1537;52.018;8.542;2023-10-31T14:43:16;14.47;;;12.90;;
3054;SDS011;1537;52.018;8.542;2023-10-31T14:46:43;16.13;;;12.03;;
3054;SDS011;1537;52.018;8.542;2023-10-31T14:50:07;13.50;;;11.30;;
3054;SDS011;1537;52.018;8.542;2023-10-31T14:53:31;16.70;;;10.70;;
3054;SDS011;1537;52.018;8.542;2023-10-31T14:56:59;17.03;;;13.30;;
3054;SDS011;1537;52.018;8.542;2023-10-31T15:00:23;15.73;;;11.43;;
3054;SDS011;1537;52.018;8.542;2023-10-31T15:03:47;17.00;;;13.87;;
3054;SDS011;1537;52.018;8.542;2023-10-31T15:07:11;14.23;;;10.10;;
3054;SDS011;1537;52.018;8.542;2023-10-31T15:10:38;20.77;;;12.47;;
3054;SDS011;1537;52.018;8.542;2023-10-31T15:14:03;15.07;;;11.33;;
3054;SDS011;1537;52.018;8.542;2023-10-31T15:17:27;15.57;;;11.33;;
3054;SDS011;1537;52.018;8.542;2023-10-31T15:20:51;14.50;;;12.17;;
3054;SDS011;1537;52.018;8.542;2023-10-31T15:24:19;17.73;;;11.80;;
3054;SDS011;1537;52.018;8.542;2023-10-31T15:27:43;17.47;;;10.40;;
3054;SDS011;1537;52.018;8.542;2023-10-31T15:31:10;14.20;;;10.60;;
3054;SDS011;1537;52.018;8.542;2023-10-31T15:34:38;15.13;;;11.13;;
3054;SDS011;1537;52.018;8.542;2023-10-31T15:38:05;16.87;;;11.43;;
3054;SDS011;1537;52.018;8.542;2023-10-31T15:41:29;16.50;;;11.30;;
3054;SDS011;1537;52.018;8.542;2023-10-31T15:44:53;16.87;;;10.70;;
3054;SDS011;1537;52.018;8.542;2023-10-31T15:48:19;16.40;;;11.90;;
3054;SDS011;1537;52.018;8.542;2023-10-31T15:51:46;14.40;;;10.80;;
3054;SDS011;1537;52.018;8.542;2023-10-31T15:55:10;15.77;;;9.77;;
3054;SDS011;1537;52.018;8.542;2023-10-31T15:58:34;12.63;;;10.47;;
3054;SDS011;1537;52.018;8.542;2023-10-31T16:01:59;18.17;;;11.77;;
3054;SDS011;1537;52.018;8.542;2023-10-31T16:05:24;15.40;;;9.77;;
3054;SDS011;1537;52.018;8.542;2023-10-31T16:08:48;17.97;;;10.60;;
3054;SDS011;1537;52.018;8.542;2023-10-31T16:12:12;12.00;;;9.73;;
3054;SDS011;1537;52.018;8.542;2023-10-31T16:15:37;15.57;;;9.87;;
3054;SDS011;1537;52.018;8.542;2023-10-31T16:19:01;17.43;;;11.47;;
3054;SDS011;1537;52.018;8.542;2023-10-31T16:22:26;12.10;;;10.80;;
3054;SDS011;1537;52.018;8.542;2023-10-31T16:25:50;13.57;;;10.27;;
3054;SDS011;1537;52.018;8.542;2023-10-31T16:29:14;17.17;;;10.40;;
3054;SDS011;1537;52.018;8.542;2023-10-31T16:32:38;14.87;;;9.20;;
3054;SDS011;1537;52.018;8.542;2023-10-31T16:36:03;15.80;;;9.33;;
3054;SDS011;1537;52.018;8.542;2023-10-31T16:39:29;16.93;;;8.90;;
3054;SDS011;1537;52.018;8.542;2023-10-31T16:42:53;11.50;;;6.60;;
3054;SDS011;1537;52.018;8.542;2023-10-31T16:46:18;9.17;;;5.83;;
3054;SDS011;1537;52.018;8.542;2023-10-31T16:49:42;8.00;;;5.70;;
3054;SDS011;1537;52.018;8.542;2023-10-31T16:53:12;14.77;;;6.87;;
3054;SDS011;1537;52.018;8.542;2023-10-31T16:56:38;12.93;;;6.00;;
3054;SDS011;1537;52.018;8.542;2023-10-31T17:00:02;9.77;;;5.80;;
3054;SDS011;1537;52.018;8.542;2023-10-31T17:03:27;12.57;;;7.10;;
3054;SDS011;1537;52.018;8.542;2023-10-31T17:06:51;16.57;;;9.73;;
3054;SDS011;1537;52.018;8.542;2023-10-31T17:10:17;12.57;;;6.67;;
3054;SDS011;1537;52.018;8.542;2023-10-31T17:13:45;13.47;;;6.73;;
3054;SDS011;1537;52.018;8.542;2023-10-31T17:17:12;8.37;;;6.33;;
3054;SDS011;1537;52.018;8.542;2023-10-31T17:20:36;10.53;;;7.07;;
3054;SDS011;1537;52.018;8.542;2023-10-31T17:24:00;11.07;;;7.83;;
3054;SDS011;1537;52.018;8.542;2023-10-31T17:27:24;10.70;;;5.93;;
3054;SDS011;1537;52.018;8.542;2023-10-31T17:30:51;12.37;;;6.50;;
3054;SDS011;1537;52.018;8.542;2023-10-31T17:34:16;9.27;;;6.50;;
3054;SDS011;1537;52.018;8.542;2023-10-31T17:37:40;12.53;;;7.90;;
3054;SDS011;1537;52.018;8.542;2023-10-31T17:41:04;11.10;;;7.13;;
3054;SDS011;1537;52.018;8.542;2023-10-31T17:44:27;13.03;;;8.00;;
3054;SDS011;1537;52.018;8.542;2023-10-31T17:47:52;15.03;;;8.37;;
3054;SDS011;1537;52.018;8.542;2023-10-31T17:51:18;15.97;;;9.00;;
3054;SDS011;1537;52.018;8.542;2023-10-31T17:54:42;15.00;;;7.60;;
3054;SDS011;1537;52.018;8.542;2023-10-31T17:58:06;17.17;;;7.90;;
3054;SDS011;1537;52.018;8.542;2023-10-31T18:01:30;15.30;;;8.27;;
3054;SDS011;1537;52.018;8.542;2023-10-31T18:04:55;10.03;;;7.13;;
3054;SDS011;1537;52.018;8.542;2023-10-31T18:08:19;14.03;;;9.10;;
3054;SDS011;1537;52.018;8.542;2023-10-31T18:11:42;13.77;;;9.60;;
3054;SDS011;1537;52.018;8.542;2023-10-31T18:15:07;13.43;;;8.60;;
3054;SDS011;1537;52.018;8.542;2023-10-31T18:18:31;12.13;;;8.90;;
3054;SDS011;1537;52.018;8.542;2023-10-31T18:21:56;13.27;;;8.37;;
3054;SDS011;1537;52.018;8.542;2023-10-31T18:25:21;17.00;;;9.63;;
3054;SDS011;1537;52.018;8.542;2023-10-31T18:28:45;13.33;;;8.17;;
3054;SDS011;1537;52.018;8.542;2023-10-31T18:32:09;13.97;;;8.10;;
3054;SDS011;1537;52.018;8.542;2023-10-31T18:35:33;12.20;;;9.30;;
3054;SDS011;1537;52.018;8.542;2023-10-31T18:38:58;17.63;;;8.77;;
3054;SDS011;1537;52.018;8.542;2023-10-31T18:42:22;13.40;;;8.97;;
3054;SDS011;1537;52.018;8.542;2023-10-31T18:45:45;18.53;;;11.97;;
3054;SDS011;1537;52.018;8.542;2023-10-31T18:49:09;19.43;;;11.40;;
3054;SDS011;1537;52.018;8.542;2023-10-31T18:52:33;13.53;;;9.90;;
3054;SDS011;1537;52.018;8.542;2023-10-31T18:55:58;21.57;;;11.93;;
3054;SDS011;1537;52.018;8.542;2023-10-31T18:59:22;18.17;;;10.30;;
3054;SDS011;1537;52.018;8.542;2023-10-31T19:02:46;16.37;;;10.50;;
3054;SDS011;1537;52.018;8.542;2023-10-31T19:06:10;18.50;;;12.43;;
3054;SDS011;1537;52.018;8.542;2023-10-31T19:09:33;20.53;;;14.23;;
3054;SDS011;1537;52.018;8.542;2023-10-31T19:12:59;18.77;;;12.40;;
3054;SDS011;1537;52.018;8.542;2023-10-31T19:16:23;14.17;;;11.57;;
3054;SDS011;1537;52.018;8.542;2023-10-31T19:19:48;19.23;;;13.10;;
3054;SDS011;1537;52.018;8.542;2023-10-31T19:23:12;25.00;;;14.73;;
3054;SDS011;1537;52.018;8.542;2023-10-31T19:26:39;16.13;;;12.17;;
3054;SDS011;1537;52.018;8.542;2023-10-31T19:30:07;21.03;;;13.60;;
3054;SDS011;1537;52.018;8.542;2023-10-31T19:33:32;23.13;;;15.60;;
3054;SDS011;1537;52.018;8.542;2023-10-31T19:36:57;21.83;;;15.77;;
3054;SDS011;1537;52.018;8.542;2023-10-31T19:40:21;19.77;;;15.60;;
3054;SDS011;1537;52.018;8.542;2023-10-31T19:43:46;17.00;;;13.83;;
3054;SDS011;1537;52.018;8.542;2023-10-31T19:47:12;22.50;;;15.07;;
3054;SDS011;1537;52.018;8.542;2023-10-31T19:50:36;16.90;;;14.83;;
3054;SDS011;1537;52.018;8.542;2023-10-31T19:54:00;18.90;;;15.13;;
3054;SDS011;1537;52.018;8.542;2023-10-31T19:57:23;25.17;;;17.10;;
3054;SDS011;1537;52.018;8.542;2023-10-31T20:00:47;20.87;;;13.73;;
3054;SDS011;1537;52.018;8.542;2023-10-31T20:04:12;16.40;;;12.50;;
3054;SDS011;1537;52.018;8.542;2023-10-31T20:07:36;14.83;;;11.87;;
3054;SDS011;1537;52.018;8.542;2023-10-31T20:11:00;19.50;;;15.07;;
3054;SDS011;1537;52.018;8.542;2023-10-31T20:14:24;18.20;;;13.67;;
3054;SDS011;1537;52.018;8.542;2023-10-31T20:17:47;17.30;;;12.83;;
3054;SDS011;1537;52.018;8.542;2023-10-31T20:21:12;17.20;;;13.57;;
3054;SDS011;1537;52.018;8.542;2023-10-31T20:24:36;19.40;;;13.43;;
3054;SDS011;1537;52.018;8.542;2023-10-31T20:28:00;22.93;;;20.00;;
3054;SDS011;1537;52.018;8.542;2023-10-31T20:31:26;17.60;;;13.53;;
3054;SDS011;1537;52.018;8.542;2023-10-31T20:34:50;21.27;;;15.97;;
3054;SDS011;1537;52.018;8.542;2023-10-31T20:38:32;16.80;;;14.60;;
3054;SDS011;1537;52.018;8.542;2023-10-31T20:41:56;18.63;;;15.57;;
3054;SDS011;1537;52.018;8.542;2023-10-31T20:45:21;24.87;;;16.90;;
3054;SDS011;1537;52.018;8.542;2023-10-31T20:48:51;22.57;;;17.50;;
3054;SDS011;1537;52.018;8.542;2023-10-31T20:52:19;18.70;;;16.03;;
3054;SDS011;1537;52.018;8.542;2023-10-31T20:55:49;20.43;;;18.20;;
3054;SDS011;1537;52.018;8.542;2023-10-31T20:59:17;19.57;;;15.93;;